Stadtlohn-Vreden Airfield

EDLS · North Rhine-Westphalia, 德国

罗盘
风向 的 Stadtlohn-Vreden Airfield 11/29
风: 2 kt, 1 beaufort

1 kt

2 kt
改变
0 ft 1.000 2.000 3.000 4.000 5.000
OVC 2.200
METAR EDDG 091820Z AUTO VRB02KT 6000 OVC022 00/M01 Q1007 NOSIG

METAR Stadtlohn-Vreden Airfield - EDLS

Stadtlohn-Vreden Airfield是,德国中的小机场。 该机场有一条跑道: 11/29. 该领域的国际民航组织标志是EDLS.

这份报告是针对2022年12月9日 19:20, 当地时间在Münster Osnabrück Airport进行的。

机场观察

可变方向的风很小或没有风。

可见度为6 km。

有乌云密布在2.200 ft的高度。 破损或更高的上限为2.200 ft。

温度为0 °C,阵风为-2 °C。 露点为-1 °C,相对湿度为93%。 海平面上的气压为1007 hPa (QNH)。

白天

今天,太阳从08:28升起,在16:21降落。 这适用于Stadtlohn-Vreden Airfield,世界夏令时可能有所不同。 当地时间与世界标准时间之间的时差为+1 小时。 当前,没有夏令时有效。

公司介绍

在这个机场,你可以找到飞行学校 和 跳伞中心。 这个机场上的公司有Vliegles.nl 和 Skydive Stadtlohn。

体会

在这个机场有飞行课程。 你可以在没有任何经验的情况下预订飞行课程。 在Stadtlohn-Vreden Airfield预订最多的飞行课程类型是Flying a gyrocopter。 这些课程的价格从€ 119开始。 在这里阅读更多关于Flying a gyrocopter的信息。你也可以在这个网站上进行预订。

跑道

Id 标题 侧风 逆风 侧风 %
11/29 108°-288° 2 kt 95 %

逆风成分最大的方向会被突出显示,并用于横风计算。 这并不一定意味着这个方向在使用。

乌云

2.200 ft OVC 乌云密布

温度 & 天气

温度 0 °C
露点 -1 °C
相对湿度 93%
风寒 -2 °C
Kp-index 1 (0-9)

白天

日出
08:25 (12:56)
中午
12:21
日落
16:17

小工具

你想在你的网站上有一个关于Stadtlohn-Vreden Airfield的当前航空天气(METAR)的小部件吗?

显示HTML代码

我们和第三方通过cookies跟踪您在我们网站上的互联网行为。如果你继续,我们认为你同意我们的饼干政策